Terminal Aerodrome Forecast
Issued by NWS Miami, FL

Home | Current Version | Previous Version | Text Only | Print | Product List | Glossary On
Versions: 1 2 3 4 5 6 7 8 9 10 11 12 13 14 15 16 17 18 19 20 21 22 23 24 25 26 27 28 29 30 31 32 33 34 35 36 37 38 39 40 41 42 43 44 45 46 47 48 49 50
000
FTUS42 KMFL 252105 AAA
TAFPBI
TAF AMD
KPBI 252105Z 2521/2618 17016KT P6SM VCSH SCT023 BKN035 BKN250
     FM260400 16012KT P6SM VCSH SCT010 BKN020
     FM260900 17011KT P6SM VCSH BKN009 BKN020
     FM261100 19011KT P6SM VCSH BKN019 BKN020
     FM261300 27013KT P6SM VCSH OVC015
     FM261400 30014G20KT P6SM VCSH OVC025
     FM261700 32015G21KT P6SM OVC050=

USA.gov is the U.S. government's official web portal to all federal, state and local government web resources and services.